createdAt,value
2019-02-15T00:01:53.023Z,61.66
2019-02-15T00:04:58.800Z,60.88
2019-02-15T00:08:06.098Z,60.71
2019-02-15T00:11:11.885Z,61.01
2019-02-15T00:14:17.695Z,61.36
2019-02-15T00:17:41.160Z,61.50
2019-02-15T00:20:53.244Z,63.29
2019-02-15T00:23:59.004Z,62.67
2019-02-15T00:27:04.864Z,63.45
2019-02-15T00:30:12.260Z,63.52
2019-02-15T00:33:18.017Z,63.54
2019-02-15T00:36:23.798Z,63.61
2019-02-15T00:39:29.651Z,62.88
2019-02-15T00:42:35.421Z,63.34
2019-02-15T00:45:52.925Z,63.48
2019-02-15T00:48:59.412Z,62.96
2019-02-15T00:52:16.856Z,62.18
2019-02-15T00:55:35.213Z,61.54
2019-02-15T00:59:09.003Z,61.30
2019-02-15T01:02:27.153Z,62.15
2019-02-15T01:05:49.396Z,62.69
2019-02-15T01:09:14.033Z,62.06
2019-02-15T01:12:41.799Z,61.83
2019-02-15T01:15:47.546Z,61.04
2019-02-15T01:18:53.322Z,60.21
2019-02-15T01:21:59.081Z,60.36
2019-02-15T01:25:05.221Z,60.19
2019-02-15T01:28:21.309Z,60.03
2019-02-15T01:31:51.959Z,60.98
2019-02-15T01:35:11.831Z,61.80
2019-02-15T01:38:33.612Z,62.71
2019-02-15T01:42:13.419Z,61.86
2019-02-15T01:45:32.946Z,62.12
2019-02-15T01:48:38.717Z,61.78
2019-02-15T01:51:44.544Z,61.33
2019-02-15T01:54:50.332Z,61.43
2019-02-15T01:57:56.079Z,60.71
2019-02-15T02:01:01.959Z,61.01
2019-02-15T02:04:07.734Z,60.23
2019-02-15T02:07:13.497Z,60.10
2019-02-15T02:10:19.285Z,59.79
2019-02-15T02:13:25.372Z,59.89
2019-02-15T02:16:31.126Z,59.48
2019-02-15T02:19:36.898Z,59.04
2019-02-15T02:22:42.677Z,59.11
2019-02-15T02:25:48.419Z,59.50
2019-02-15T02:28:54.256Z,59.06
2019-02-15T02:32:01.138Z,58.72
2019-02-15T02:35:08.500Z,58.16
2019-02-15T02:38:14.247Z,57.66
2019-02-15T02:41:20.149Z,57.69
2019-02-15T02:44:25.999Z,57.76
2019-02-15T02:47:31.780Z,57.64
2019-02-15T02:50:37.532Z,57.74
2019-02-15T02:53:43.310Z,57.69
2019-02-15T02:56:49.222Z,60.26
2019-02-15T02:59:55.009Z,61.01
2019-02-15T03:03:00.837Z,59.86
2019-02-15T03:06:06.633Z,61.17
2019-02-15T03:09:12.397Z,62.16
2019-02-15T03:12:18.165Z,62.41
2019-02-15T03:15:23.933Z,65.15
2019-02-15T03:18:29.689Z,63.48
2019-02-15T03:21:35.440Z,64.42
2019-02-15T03:24:41.210Z,63.06
2019-02-15T03:27:46.971Z,62.57
2019-02-15T03:30:52.891Z,63.42
2019-02-15T03:33:58.757Z,62.55
2019-02-15T03:37:23.451Z,62.60
2019-02-15T03:40:50.645Z,61.40
2019-02-15T03:43:56.770Z,59.89
2019-02-15T03:47:02.568Z,60.00
2019-02-15T03:50:08.980Z,59.64
2019-02-15T03:53:14.748Z,59.30
2019-02-15T03:56:20.497Z,59.28
2019-02-15T03:59:26.576Z,59.41
2019-02-15T04:02:32.529Z,59.13
2019-02-15T04:05:38.360Z,59.66
2019-02-15T04:08:44.181Z,59.52
2019-02-15T04:11:49.964Z,59.99
2019-02-15T04:14:55.745Z,59.13
2019-02-15T04:18:01.521Z,59.54
2019-02-15T04:21:07.308Z,59.66
2019-02-15T04:24:14.195Z,59.54
2019-02-15T04:27:19.999Z,60.39
2019-02-15T04:30:25.783Z,59.69
2019-02-15T04:33:31.544Z,59.95
2019-02-15T04:36:37.356Z,60.30
2019-02-15T04:39:43.111Z,60.63
2019-02-15T04:42:48.879Z,61.45
2019-02-15T04:45:54.638Z,61.93
2019-02-15T04:49:00.395Z,61.50
2019-02-15T04:52:06.159Z,61.83
2019-02-15T04:55:12.006Z,63.08
2019-02-15T04:58:17.815Z,62.57
2019-02-15T05:01:23.578Z,62.66
2019-02-15T05:04:29.383Z,62.37
2019-02-15T05:07:35.209Z,61.58
2019-02-15T05:10:41.001Z,61.13
2019-02-15T05:13:46.812Z,62.06
2019-02-15T05:16:52.572Z,62.02
2019-02-15T05:19:58.378Z,61.76
2019-02-15T05:23:04.141Z,61.39
2019-02-15T05:26:09.949Z,62.03
2019-02-15T05:29:15.739Z,60.88
2019-02-15T05:32:21.514Z,61.27
2019-02-15T05:35:27.269Z,61.01
2019-02-15T05:38:33.111Z,60.75
2019-02-15T05:41:38.871Z,60.84
2019-02-15T05:44:44.640Z,61.58
2019-02-15T05:47:50.394Z,61.41
2019-02-15T05:50:56.175Z,61.83
2019-02-15T05:54:01.952Z,60.52
2019-02-15T05:57:09.610Z,61.93
2019-02-15T06:00:15.210Z,61.02
2019-02-15T06:03:20.964Z,60.31
2019-02-15T06:06:26.736Z,60.37
2019-02-15T06:09:32.551Z,60.57
2019-02-15T06:12:38.300Z,60.67
2019-02-15T06:15:44.083Z,60.04
2019-02-15T06:18:49.848Z,61.55
2019-02-15T06:21:55.708Z,60.50
2019-02-15T06:25:01.485Z,61.30
2019-02-15T06:28:07.273Z,61.67
2019-02-15T06:31:13.035Z,61.74
2019-02-15T06:34:18.802Z,62.48
2019-02-15T06:37:24.635Z,62.80
2019-02-15T06:40:30.398Z,63.00
2019-02-15T06:43:36.203Z,62.63
2019-02-15T06:46:42.268Z,62.37
2019-02-15T06:49:49.046Z,61.66
2019-02-15T06:52:54.927Z,62.29
2019-02-15T06:56:00.660Z,62.90
2019-02-15T06:59:27.899Z,61.50
2019-02-15T07:02:58.336Z,61.00
2019-02-15T07:06:04.132Z,61.47
2019-02-15T07:09:09.893Z,60.21
2019-02-15T07:12:15.678Z,60.66
2019-02-15T07:15:21.552Z,60.15
2019-02-15T07:18:27.332Z,59.72
2019-02-15T07:21:33.113Z,59.94
2019-02-15T07:24:39.878Z,59.24
2019-02-15T07:27:45.637Z,59.63
2019-02-15T07:30:52.388Z,58.64
2019-02-15T07:33:58.157Z,58.69
2019-02-15T07:37:03.919Z,58.04
2019-02-15T07:40:10.325Z,57.12
2019-02-15T07:43:16.253Z,57.43
2019-02-15T07:46:22.017Z,57.71
2019-02-15T07:49:27.772Z,57.66
2019-02-15T07:52:34.513Z,58.12
2019-02-15T07:55:40.304Z,57.92
2019-02-15T07:58:46.187Z,59.42
2019-02-15T08:01:51.894Z,58.73
2019-02-15T08:04:57.628Z,58.94
2019-02-15T08:08:03.399Z,57.46
2019-02-15T08:11:09.140Z,56.55
2019-02-15T08:14:17.105Z,56.58
2019-02-15T08:17:22.411Z,57.36
2019-02-15T08:20:28.215Z,56.56
2019-02-15T08:23:34.043Z,57.34
2019-02-15T08:26:39.824Z,57.49
2019-02-15T08:29:45.682Z,58.04
2019-02-15T08:32:51.514Z,58.04
2019-02-15T08:35:57.284Z,58.87
2019-02-15T08:39:03.232Z,59.01
2019-02-15T08:42:10.548Z,59.06
2019-02-15T08:45:16.429Z,58.23
2019-02-15T08:48:22.210Z,58.60
2019-02-15T08:51:28.000Z,58.42
2019-02-15T08:54:34.898Z,57.68
2019-02-15T08:57:40.629Z,57.95
2019-02-15T09:00:46.405Z,59.05
2019-02-15T09:03:52.146Z,59.42
2019-02-15T09:06:57.908Z,58.08
2019-02-15T09:10:04.130Z,57.67
2019-02-15T09:13:09.986Z,57.55
2019-02-15T09:16:15.791Z,57.34
2019-02-15T09:19:21.559Z,57.27
2019-02-15T09:22:27.311Z,57.51
2019-02-15T09:25:33.092Z,56.90
2019-02-15T09:28:46.322Z,56.65
2019-02-15T09:31:52.137Z,56.41
2019-02-15T09:34:57.903Z,57.31
2019-02-15T09:38:03.697Z,57.10
2019-02-15T09:41:09.474Z,56.43
2019-02-15T09:44:15.235Z,56.31
2019-02-15T09:47:21.029Z,55.92
2019-02-15T09:50:26.801Z,56.89
2019-02-15T09:53:32.573Z,57.00
2019-02-15T09:56:38.431Z,57.79
2019-02-15T09:59:44.182Z,57.83
2019-02-15T10:02:49.941Z,56.18
2019-02-15T10:05:55.713Z,58.88
2019-02-15T10:09:01.564Z,59.77
2019-02-15T10:12:08.894Z,60.70
2019-02-15T10:15:14.757Z,59.47
2019-02-15T10:18:21.667Z,60.10
2019-02-15T10:21:27.431Z,59.54
2019-02-15T10:24:33.210Z,58.79
2019-02-15T10:27:38.980Z,58.80
2019-02-15T10:30:44.833Z,57.72
2019-02-15T10:33:51.592Z,55.57
2019-02-15T10:36:58.436Z,55.10
2019-02-15T10:40:05.563Z,57.44
2019-02-15T10:43:11.317Z,55.99
2019-02-15T10:46:17.208Z,54.06
2019-02-15T10:49:24.122Z,53.24
2019-02-15T10:52:29.864Z,53.77
2019-02-15T10:55:35.650Z,53.59
2019-02-15T10:58:41.527Z,53.02
2019-02-15T11:01:47.321Z,53.41
2019-02-15T11:04:54.222Z,53.74
2019-02-15T11:08:00.015Z,52.98
2019-02-15T11:11:05.963Z,53.70
2019-02-15T11:14:11.719Z,53.43
2019-02-15T11:17:17.626Z,52.05
2019-02-15T11:20:23.690Z,52.05
2019-02-15T11:23:29.478Z,50.64
2019-02-15T11:26:35.258Z,50.43
2019-02-15T11:29:41.029Z,50.97
2019-02-15T11:32:46.972Z,51.56
2019-02-15T11:35:52.833Z,52.30
2019-02-15T11:38:58.589Z,51.59
2019-02-15T11:42:04.368Z,52.22
2019-02-15T11:45:11.339Z,51.78
2019-02-15T11:48:17.117Z,51.49
2019-02-15T11:51:22.953Z,52.16
2019-02-15T11:54:28.719Z,52.07
2019-02-15T11:57:34.514Z,53.04
2019-02-15T12:00:40.240Z,51.14
2019-02-15T12:03:46.020Z,52.25
2019-02-15T12:06:52.762Z,50.70
2019-02-15T12:09:58.519Z,51.83
2019-02-15T12:13:04.508Z,51.21
2019-02-15T12:16:10.286Z,51.18
2019-02-15T12:19:16.103Z,50.29
2019-02-15T12:22:22.015Z,50.05
2019-02-15T12:25:27.749Z,49.69
2019-02-15T12:28:33.518Z,49.41
2019-02-15T12:31:39.261Z,48.36
2019-02-15T12:34:45.130Z,48.62
2019-02-15T12:37:50.966Z,48.57
2019-02-15T12:40:56.701Z,49.23
2019-02-15T12:44:02.614Z,49.32
2019-02-15T12:47:14.877Z,48.83
2019-02-15T12:50:16.581Z,49.70
2019-02-15T12:53:22.412Z,48.46
2019-02-15T12:56:28.284Z,46.91
2019-02-15T12:59:34.047Z,46.46
2019-02-15T13:02:39.843Z,47.75
2019-02-15T13:05:45.664Z,47.96
2019-02-15T13:08:51.434Z,48.41
2019-02-15T13:11:57.238Z,48.92
2019-02-15T13:15:03.110Z,48.70
2019-02-15T13:18:09.118Z,48.05
2019-02-15T13:21:14.867Z,48.89
2019-02-15T13:24:20.721Z,48.78
2019-02-15T13:27:26.493Z,48.27
2019-02-15T13:30:32.256Z,48.26
2019-02-15T13:33:38.054Z,47.98
2019-02-15T13:36:43.873Z,47.83
2019-02-15T13:39:49.660Z,48.02
2019-02-15T13:42:55.437Z,47.90
2019-02-15T13:46:01.202Z,47.94
2019-02-15T13:49:06.960Z,48.83
2019-02-15T13:52:12.712Z,48.63
2019-02-15T13:55:18.500Z,48.71
2019-02-15T13:58:24.269Z,48.91
2019-02-15T14:01:30.087Z,48.89
2019-02-15T14:04:35.862Z,48.66
2019-02-15T14:07:41.814Z,49.44
2019-02-15T14:10:47.593Z,50.65
2019-02-15T14:13:53.367Z,49.72
2019-02-15T14:16:59.119Z,50.20
2019-02-15T14:20:05.757Z,49.35
2019-02-15T14:23:13.901Z,48.79
2019-02-15T14:26:19.079Z,49.48
2019-02-15T14:29:24.848Z,49.72
2019-02-15T14:32:30.600Z,50.30
2019-02-15T14:35:37.469Z,49.65
2019-02-15T14:38:43.316Z,49.51
2019-02-15T14:41:49.126Z,49.86
2019-02-15T14:44:54.895Z,50.13
2019-02-15T14:48:00.718Z,49.76
2019-02-15T14:51:06.616Z,49.58
2019-02-15T14:54:12.399Z,49.99
2019-02-15T14:57:18.259Z,50.27
2019-02-15T15:00:24.135Z,49.36
2019-02-15T15:03:30.154Z,49.41
2019-02-15T15:06:35.965Z,49.78
2019-02-15T15:09:44.694Z,49.13
2019-02-15T15:12:50.510Z,49.08
2019-02-15T15:15:56.320Z,48.59
2019-02-15T15:19:02.191Z,49.01
2019-02-15T15:22:07.985Z,48.61
2019-02-15T15:25:14.001Z,48.68
2019-02-15T15:28:19.927Z,48.81
2019-02-15T15:31:25.754Z,49.25
2019-02-15T15:34:32.110Z,49.46
2019-02-15T15:37:38.057Z,51.63
2019-02-15T15:40:43.870Z,49.67
2019-02-15T15:43:49.642Z,49.37
2019-02-15T15:46:55.461Z,49.97
2019-02-15T15:50:01.241Z,49.28
2019-02-15T15:53:07.962Z,49.35
2019-02-15T15:56:13.897Z,49.99
2019-02-15T15:59:19.737Z,49.76
2019-02-15T16:02:25.513Z,49.61
2019-02-15T16:05:31.320Z,49.46
2019-02-15T16:08:37.093Z,49.51
2019-02-15T16:11:43.025Z,49.45
2019-02-15T16:14:48.856Z,49.64
2019-02-15T16:17:54.648Z,49.87
2019-02-15T16:21:00.432Z,49.71
2019-02-15T16:24:12.281Z,49.33
2019-02-15T16:27:13.744Z,49.33
2019-02-15T16:30:19.769Z,49.53
2019-02-15T16:33:25.540Z,49.44
2019-02-15T16:36:31.417Z,49.88
2019-02-15T16:39:37.172Z,49.58
2019-02-15T16:42:43.192Z,50.34
2019-02-15T16:45:49.095Z,50.80
2019-02-15T16:48:54.875Z,49.90
2019-02-15T16:52:00.679Z,50.16
2019-02-15T16:55:12.876Z,50.31
2019-02-15T16:58:14.163Z,49.86
2019-02-15T17:01:19.981Z,49.88
2019-02-15T17:04:25.774Z,49.56
2019-02-15T17:07:31.659Z,50.20
2019-02-15T17:10:37.440Z,49.88
2019-02-15T17:13:43.223Z,50.08
2019-02-15T17:16:48.985Z,50.26
2019-02-15T17:19:54.746Z,49.68
2019-02-15T17:23:00.510Z,49.70
2019-02-15T17:26:06.308Z,49.23
2019-02-15T17:29:12.079Z,49.70
2019-02-15T17:32:17.901Z,49.70
2019-02-15T17:35:23.714Z,48.51
2019-02-15T17:38:29.614Z,48.69
2019-02-15T17:41:35.359Z,49.30
2019-02-15T17:44:42.269Z,48.84
2019-02-15T17:47:48.062Z,50.16
2019-02-15T17:50:53.898Z,50.50
2019-02-15T17:53:59.673Z,49.84
2019-02-15T17:57:06.187Z,49.78
2019-02-15T18:00:13.009Z,48.90
2019-02-15T18:03:18.939Z,48.86
2019-02-15T18:06:24.718Z,48.56
2019-02-15T18:09:30.534Z,48.29
2019-02-15T18:12:36.304Z,48.13
2019-02-15T18:15:42.099Z,48.91
2019-02-15T18:18:47.867Z,48.15
2019-02-15T18:21:53.735Z,47.72
2019-02-15T18:24:59.529Z,49.16
2019-02-15T18:28:05.594Z,48.94
2019-02-15T18:31:11.368Z,49.79
2019-02-15T18:34:17.194Z,48.89
2019-02-15T18:37:23.077Z,48.70
2019-02-15T18:40:28.898Z,48.93
2019-02-15T18:43:34.636Z,48.73
2019-02-15T18:46:40.423Z,48.50
2019-02-15T18:49:46.309Z,48.41
2019-02-15T18:52:52.413Z,47.75
2019-02-15T18:55:58.317Z,48.40
2019-02-15T18:59:04.112Z,48.05
2019-02-15T19:02:09.987Z,48.22
2019-02-15T19:05:15.961Z,48.89
2019-02-15T19:08:21.816Z,47.32
2019-02-15T19:11:27.728Z,47.01
2019-02-15T19:14:33.590Z,47.12
2019-02-15T19:17:39.552Z,47.29
2019-02-15T19:20:45.438Z,47.59
2019-02-15T19:23:52.371Z,47.15
2019-02-15T19:26:58.268Z,46.89
2019-02-15T19:30:05.667Z,46.70
2019-02-15T19:33:11.665Z,47.89
2019-02-15T19:36:18.637Z,47.67
2019-02-15T19:39:24.403Z,47.88
2019-02-15T19:42:30.216Z,47.11
2019-02-15T19:45:36.002Z,47.81
2019-02-15T19:48:41.781Z,47.92
2019-02-15T19:51:48.181Z,48.01
2019-02-15T19:54:54.020Z,48.74
2019-02-15T19:57:59.873Z,48.63
2019-02-15T20:01:05.773Z,49.65
2019-02-15T20:04:11.601Z,49.80
2019-02-15T20:07:17.497Z,49.91
2019-02-15T20:10:23.824Z,50.13
2019-02-15T20:13:29.698Z,49.95
2019-02-15T20:16:35.523Z,50.03
2019-02-15T20:19:48.224Z,50.97
2019-02-15T20:22:49.051Z,50.92
2019-02-15T20:25:54.894Z,50.77
2019-02-15T20:29:00.671Z,51.06
2019-02-15T20:32:06.460Z,50.78
2019-02-15T20:35:13.568Z,49.89
2019-02-15T20:38:19.703Z,51.40
2019-02-15T20:41:25.587Z,50.98
2019-02-15T20:44:31.460Z,51.21
2019-02-15T20:47:37.227Z,51.33
2019-02-15T20:50:43.019Z,51.17
2019-02-15T20:53:48.917Z,51.09
2019-02-15T20:56:54.667Z,51.25
2019-02-15T21:00:00.471Z,51.64
2019-02-15T21:03:06.588Z,52.04
2019-02-15T21:06:12.350Z,51.11
2019-02-15T21:09:18.221Z,50.81
2019-02-15T21:12:24.019Z,50.86
2019-02-15T21:15:29.804Z,50.42
2019-02-15T21:18:35.600Z,50.70
2019-02-15T21:21:41.465Z,51.03
2019-02-15T21:24:47.232Z,50.06
2019-02-15T21:27:53.021Z,50.20
2019-02-15T21:30:58.884Z,50.53
2019-02-15T21:34:04.743Z,49.90
2019-02-15T21:37:10.542Z,49.57
2019-02-15T21:40:16.841Z,50.49
2019-02-15T21:43:22.606Z,49.59
2019-02-15T21:46:28.406Z,49.86
2019-02-15T21:49:34.211Z,49.76
2019-02-15T21:52:44.385Z,49.69
2019-02-15T21:55:47.623Z,49.31
2019-02-15T21:58:53.433Z,49.16
2019-02-15T22:01:59.216Z,49.27
2019-02-15T22:05:05.244Z,48.66
2019-02-15T22:08:11.015Z,48.76
2019-02-15T22:11:16.864Z,49.16
2019-02-15T22:14:22.655Z,49.93
2019-02-15T22:17:28.460Z,49.12
2019-02-15T22:20:34.217Z,48.34
2019-02-15T22:23:39.963Z,49.26
2019-02-15T22:26:45.746Z,48.72
2019-02-15T22:29:51.462Z,49.34
2019-02-15T22:32:57.234Z,49.62
2019-02-15T22:36:02.996Z,49.03
2019-02-15T22:39:08.924Z,49.00
2019-02-15T22:42:15.037Z,49.14
2019-02-15T22:45:20.919Z,49.27
2019-02-15T22:48:26.690Z,49.11
2019-02-15T22:51:32.475Z,48.37
2019-02-15T22:54:38.268Z,48.24
2019-02-15T22:57:44.046Z,48.25
2019-02-15T23:00:57.356Z,47.96
2019-02-15T23:04:03.380Z,48.10
2019-02-15T23:07:09.166Z,48.46
2019-02-15T23:10:15.057Z,48.38
2019-02-15T23:13:20.963Z,48.05
2019-02-15T23:16:26.738Z,48.64
2019-02-15T23:19:32.517Z,50.13
2019-02-15T23:22:38.327Z,48.79
2019-02-15T23:25:44.091Z,48.49
2019-02-15T23:28:49.874Z,48.22
2019-02-15T23:31:55.641Z,48.17
2019-02-15T23:35:01.399Z,49.46
2019-02-15T23:38:07.178Z,48.93
2019-02-15T23:41:13.975Z,49.49
2019-02-15T23:44:19.816Z,49.15
2019-02-15T23:47:25.593Z,48.83
2019-02-15T23:50:31.390Z,49.12
2019-02-15T23:53:37.171Z,49.27
2019-02-15T23:56:42.952Z,49.46
2019-02-15T23:59:48.821Z,49.79
